sensor_id;sensor_type;location;lat;lon;timestamp;temperature;humidity
18894;DHT22;9579;49.488;8.226;2022-12-18T00:01:17;-0.90;95.80
18894;DHT22;9579;49.488;8.226;2022-12-18T00:04:10;-0.90;96.30
18894;DHT22;9579;49.488;8.226;2022-12-18T00:07:00;-0.80;96.40
18894;DHT22;9579;49.488;8.226;2022-12-18T00:09:47;-0.70;96.30
18894;DHT22;9579;49.488;8.226;2022-12-18T00:12:34;-0.70;96.20
18894;DHT22;9579;49.488;8.226;2022-12-18T00:15:21;-0.60;96.50
18894;DHT22;9579;49.488;8.226;2022-12-18T00:18:09;-0.60;96.80
18894;DHT22;9579;49.488;8.226;2022-12-18T00:21:00;-0.60;96.40
18894;DHT22;9579;49.488;8.226;2022-12-18T00:23:49;-0.60;96.60
18894;DHT22;9579;49.488;8.226;2022-12-18T00:26:38;-0.50;96.50
18894;DHT22;9579;49.488;8.226;2022-12-18T00:29:25;-0.60;96.10
18894;DHT22;9579;49.488;8.226;2022-12-18T00:32:12;-0.60;96.40
18894;DHT22;9579;49.488;8.226;2022-12-18T00:34:59;-0.60;96.40
18894;DHT22;9579;49.488;8.226;2022-12-18T00:37:48;-0.50;96.60
18894;DHT22;9579;49.488;8.226;2022-12-18T00:40:35;-0.40;96.50
18894;DHT22;9579;49.488;8.226;2022-12-18T00:43:22;-0.40;96.10
18894;DHT22;9579;49.488;8.226;2022-12-18T00:46:08;-0.50;96.30
18894;DHT22;9579;49.488;8.226;2022-12-18T00:48:55;-0.40;96.60
18894;DHT22;9579;49.488;8.226;2022-12-18T00:51:43;-0.40;96.60
18894;DHT22;9579;49.488;8.226;2022-12-18T00:54:31;-0.40;96.60
18894;DHT22;9579;49.488;8.226;2022-12-18T00:57:19;-0.30;96.70
18894;DHT22;9579;49.488;8.226;2022-12-18T07:00:25;-0.70;97.00
18894;DHT22;9579;49.488;8.226;2022-12-18T07:03:13;-0.80;97.20
18894;DHT22;9579;49.488;8.226;2022-12-18T07:06:00;-0.80;96.90
18894;DHT22;9579;49.488;8.226;2022-12-18T07:08:48;-0.70;97.00
18894;DHT22;9579;49.488;8.226;2022-12-18T07:11:35;-0.70;96.90
18894;DHT22;9579;49.488;8.226;2022-12-18T13:13:27;1.30;94.20
18894;DHT22;9579;49.488;8.226;2022-12-18T13:16:47;1.30;95.00
18894;DHT22;9579;49.488;8.226;2022-12-18T13:19:43;1.40;95.20
18894;DHT22;9579;49.488;8.226;2022-12-18T13:22:35;1.30;95.20
18894;DHT22;9579;49.488;8.226;2022-12-18T13:25:34;1.30;95.10
18894;DHT22;9579;49.488;8.226;2022-12-18T13:28:52;1.40;95.50
18894;DHT22;9579;49.488;8.226;2022-12-18T13:32:15;1.30;95.10
18894;DHT22;9579;49.488;8.226;2022-12-18T13:35:39;1.30;95.10
18894;DHT22;9579;49.488;8.226;2022-12-18T13:42:40;1.30;95.50
18894;DHT22;9579;49.488;8.226;2022-12-18T13:46:27;1.10;95.30
18894;DHT22;9579;49.488;8.226;2022-12-18T13:49:27;1.10;95.80
18894;DHT22;9579;49.488;8.226;2022-12-18T13:52:22;1.00;95.30
18894;DHT22;9579;49.488;8.226;2022-12-18T13:55:19;0.70;95.50
18894;DHT22;9579;49.488;8.226;2022-12-18T13:58:13;0.80;96.10
18894;DHT22;9579;49.488;8.226;2022-12-18T14:01:23;0.70;95.60
18894;DHT22;9579;49.488;8.226;2022-12-18T14:04:20;0.70;96.10
18894;DHT22;9579;49.488;8.226;2022-12-18T14:07:13;0.80;96.10
18894;DHT22;9579;49.488;8.226;2022-12-18T14:10:01;0.90;96.10
18894;DHT22;9579;49.488;8.226;2022-12-18T14:12:50;1.00;96.50
18894;DHT22;9579;49.488;8.226;2022-12-18T14:15:55;1.00;96.20
18894;DHT22;9579;49.488;8.226;2022-12-18T14:18:48;1.30;96.10
18894;DHT22;9579;49.488;8.226;2022-12-18T14:21:38;1.20;95.70
18894;DHT22;9579;49.488;8.226;2022-12-18T14:24:29;1.20;95.50
18894;DHT22;9579;49.488;8.226;2022-12-18T14:27:24;1.10;95.80
18894;DHT22;9579;49.488;8.226;2022-12-18T14:30:29;1.10;95.90
18894;DHT22;9579;49.488;8.226;2022-12-18T14:33:25;1.00;96.00
18894;DHT22;9579;49.488;8.226;2022-12-18T14:36:22;1.00;96.20
18894;DHT22;9579;49.488;8.226;2022-12-18T14:39:16;1.20;96.40
18894;DHT22;9579;49.488;8.226;2022-12-18T14:42:04;1.10;96.40
18894;DHT22;9579;49.488;8.226;2022-12-18T14:44:51;1.00;96.30
18894;DHT22;9579;49.488;8.226;2022-12-18T14:47:43;1.00;96.20
18894;DHT22;9579;49.488;8.226;2022-12-18T14:50:30;1.00;96.20
18894;DHT22;9579;49.488;8.226;2022-12-18T14:53:23;1.10;96.50
18894;DHT22;9579;49.488;8.226;2022-12-18T14:56:16;1.20;96.80
18894;DHT22;9579;49.488;8.226;2022-12-18T14:59:12;1.20;96.30
18894;DHT22;9579;49.488;8.226;2022-12-18T15:02:08;1.20;96.40
18894;DHT22;9579;49.488;8.226;2022-12-18T15:05:00;1.20;96.30
18894;DHT22;9579;49.488;8.226;2022-12-18T15:07:50;1.10;96.30
18894;DHT22;9579;49.488;8.226;2022-12-18T15:10:47;1.20;96.50
18894;DHT22;9579;49.488;8.226;2022-12-18T15:13:34;1.10;96.40
18894;DHT22;9579;49.488;8.226;2022-12-18T15:16:21;1.10;96.40
18894;DHT22;9579;49.488;8.226;2022-12-18T15:19:09;1.00;96.60
18894;DHT22;9579;49.488;8.226;2022-12-18T15:21:56;1.10;96.60
18894;DHT22;9579;49.488;8.226;2022-12-18T15:24:46;1.10;96.50
18894;DHT22;9579;49.488;8.226;2022-12-18T15:27:52;1.10;96.50
18894;DHT22;9579;49.488;8.226;2022-12-18T15:30:58;1.30;96.40
18894;DHT22;9579;49.488;8.226;2022-12-18T15:34:12;1.20;96.50
18894;DHT22;9579;49.488;8.226;2022-12-18T15:37:00;1.20;96.50
18894;DHT22;9579;49.488;8.226;2022-12-18T15:39:49;1.30;96.50
18894;DHT22;9579;49.488;8.226;2022-12-18T15:42:36;1.30;96.40
18894;DHT22;9579;49.488;8.226;2022-12-18T15:45:42;1.30;96.30
18894;DHT22;9579;49.488;8.226;2022-12-18T15:48:30;1.20;96.20
18894;DHT22;9579;49.488;8.226;2022-12-18T15:51:20;1.20;96.10
18894;DHT22;9579;49.488;8.226;2022-12-18T15:54:12;1.20;95.90
18894;DHT22;9579;49.488;8.226;2022-12-18T15:57:01;1.20;96.20
18894;DHT22;9579;49.488;8.226;2022-12-18T16:00:11;1.20;96.20
18894;DHT22;9579;49.488;8.226;2022-12-18T16:02:59;1.20;96.30
18894;DHT22;9579;49.488;8.226;2022-12-18T16:05:46;1.20;96.40
18894;DHT22;9579;49.488;8.226;2022-12-18T16:08:33;1.20;96.40
18894;DHT22;9579;49.488;8.226;2022-12-18T16:11:23;1.20;96.60
18894;DHT22;9579;49.488;8.226;2022-12-18T16:14:25;1.20;96.60
18894;DHT22;9579;49.488;8.226;2022-12-18T16:17:14;1.20;96.60
18894;DHT22;9579;49.488;8.226;2022-12-18T16:20:12;1.20;96.80
18894;DHT22;9579;49.488;8.226;2022-12-18T16:23:00;1.30;96.80
18894;DHT22;9579;49.488;8.226;2022-12-18T16:25:47;1.40;96.80
18894;DHT22;9579;49.488;8.226;2022-12-18T16:28:34;1.40;96.60
18894;DHT22;9579;49.488;8.226;2022-12-18T16:31:21;1.50;96.60
18894;DHT22;9579;49.488;8.226;2022-12-18T16:34:13;1.50;96.50
18894;DHT22;9579;49.488;8.226;2022-12-18T16:37:04;1.60;96.50
18894;DHT22;9579;49.488;8.226;2022-12-18T16:39:51;1.60;96.50
18894;DHT22;9579;49.488;8.226;2022-12-18T16:42:40;1.60;96.40
18894;DHT22;9579;49.488;8.226;2022-12-18T16:45:27;1.60;96.50
18894;DHT22;9579;49.488;8.226;2022-12-18T16:48:18;1.50;96.60
18894;DHT22;9579;49.488;8.226;2022-12-18T16:51:05;1.50;96.70
18894;DHT22;9579;49.488;8.226;2022-12-18T16:53:55;1.40;96.80
18894;DHT22;9579;49.488;8.226;2022-12-18T16:56:42;1.50;96.70
18894;DHT22;9579;49.488;8.226;2022-12-18T16:59:30;1.50;96.90
18894;DHT22;9579;49.488;8.226;2022-12-18T17:02:18;1.50;96.70
18894;DHT22;9579;49.488;8.226;2022-12-18T17:05:06;1.40;96.80
18894;DHT22;9579;49.488;8.226;2022-12-18T17:07:53;1.30;96.80
18894;DHT22;9579;49.488;8.226;2022-12-18T17:10:45;1.20;97.10
18894;DHT22;9579;49.488;8.226;2022-12-18T17:13:32;1.10;97.20
18894;DHT22;9579;49.488;8.226;2022-12-18T17:16:33;1.00;97.20
18894;DHT22;9579;49.488;8.226;2022-12-18T17:19:24;0.90;97.30
18894;DHT22;9579;49.488;8.226;2022-12-18T17:22:12;0.80;97.70
18894;DHT22;9579;49.488;8.226;2022-12-18T17:24:59;0.70;98.00
18894;DHT22;9579;49.488;8.226;2022-12-18T17:27:49;0.60;97.90
18894;DHT22;9579;49.488;8.226;2022-12-18T17:30:37;0.60;98.20
18894;DHT22;9579;49.488;8.226;2022-12-18T17:33:26;0.60;98.20
18894;DHT22;9579;49.488;8.226;2022-12-18T17:36:14;0.60;98.10
18894;DHT22;9579;49.488;8.226;2022-12-18T17:39:16;0.50;98.30
18894;DHT22;9579;49.488;8.226;2022-12-18T17:42:03;0.50;98.50
18894;DHT22;9579;49.488;8.226;2022-12-18T17:44:54;0.40;98.50
18894;DHT22;9579;49.488;8.226;2022-12-18T17:47:41;0.30;98.60
18894;DHT22;9579;49.488;8.226;2022-12-18T17:50:34;0.30;98.70
18894;DHT22;9579;49.488;8.226;2022-12-18T17:53:22;0.30;99.00
18894;DHT22;9579;49.488;8.226;2022-12-18T17:56:15;0.40;99.00
18894;DHT22;9579;49.488;8.226;2022-12-18T17:59:02;0.30;99.00
18894;DHT22;9579;49.488;8.226;2022-12-18T18:01:51;0.20;99.20
18894;DHT22;9579;49.488;8.226;2022-12-18T18:04:41;0.20;99.20
18894;DHT22;9579;49.488;8.226;2022-12-18T18:07:31;0.20;99.10
18894;DHT22;9579;49.488;8.226;2022-12-18T18:10:28;0.30;99.50
18894;DHT22;9579;49.488;8.226;2022-12-18T18:13:18;0.40;99.20
18894;DHT22;9579;49.488;8.226;2022-12-18T18:16:30;0.40;99.20
18894;DHT22;9579;49.488;8.226;2022-12-18T18:19:32;0.40;99.20
18894;DHT22;9579;49.488;8.226;2022-12-18T18:22:33;0.50;99.40
18894;DHT22;9579;49.488;8.226;2022-12-18T18:25:20;0.60;99.10
18894;DHT22;9579;49.488;8.226;2022-12-18T18:28:07;0.50;99.10
18894;DHT22;9579;49.488;8.226;2022-12-18T18:30:55;0.50;99.20
18894;DHT22;9579;49.488;8.226;2022-12-18T18:33:42;0.40;99.40
18894;DHT22;9579;49.488;8.226;2022-12-18T18:36:30;0.40;99.50
18894;DHT22;9579;49.488;8.226;2022-12-18T18:39:18;0.40;99.40
18894;DHT22;9579;49.488;8.226;2022-12-18T18:42:08;0.50;99.70
18894;DHT22;9579;49.488;8.226;2022-12-18T18:44:55;0.50;99.60
18894;DHT22;9579;49.488;8.226;2022-12-18T18:47:43;0.30;99.40
18894;DHT22;9579;49.488;8.226;2022-12-18T18:50:30;0.60;99.60
18894;DHT22;9579;49.488;8.226;2022-12-18T18:53:19;0.60;99.50
18894;DHT22;9579;49.488;8.226;2022-12-18T18:56:07;0.70;99.90
18894;DHT22;9579;49.488;8.226;2022-12-18T18:58:55;0.80;99.40
18894;DHT22;9579;49.488;8.226;2022-12-18T19:01:42;0.80;99.30
18894;DHT22;9579;49.488;8.226;2022-12-18T19:04:29;0.70;99.30
18894;DHT22;9579;49.488;8.226;2022-12-18T19:07:16;0.90;99.80
18894;DHT22;9579;49.488;8.226;2022-12-18T19:10:06;1.00;99.20
18894;DHT22;9579;49.488;8.226;2022-12-18T19:12:54;1.00;99.10
18894;DHT22;9579;49.488;8.226;2022-12-18T19:16:02;1.00;99.20
18894;DHT22;9579;49.488;8.226;2022-12-18T19:18:50;1.00;98.80
18894;DHT22;9579;49.488;8.226;2022-12-18T19:21:37;1.10;99.20
18894;DHT22;9579;49.488;8.226;2022-12-18T19:24:24;1.10;99.20
18894;DHT22;9579;49.488;8.226;2022-12-18T19:27:12;1.20;99.00
18894;DHT22;9579;49.488;8.226;2022-12-18T19:30:06;1.20;98.80
18894;DHT22;9579;49.488;8.226;2022-12-18T19:32:53;1.10;98.80
18894;DHT22;9579;49.488;8.226;2022-12-18T19:35:40;1.10;98.90
18894;DHT22;9579;49.488;8.226;2022-12-18T19:38:27;1.20;98.80
18894;DHT22;9579;49.488;8.226;2022-12-18T19:41:16;1.30;98.80
18894;DHT22;9579;49.488;8.226;2022-12-18T19:44:04;1.30;99.20
18894;DHT22;9579;49.488;8.226;2022-12-18T19:46:52;1.20;98.60
18894;DHT22;9579;49.488;8.226;2022-12-18T19:49:39;0.90;98.90
18894;DHT22;9579;49.488;8.226;2022-12-18T19:52:26;0.90;99.20
18894;DHT22;9579;49.488;8.226;2022-12-18T19:55:14;1.00;99.00
18894;DHT22;9579;49.488;8.226;2022-12-18T19:58:01;1.10;99.30
18894;DHT22;9579;49.488;8.226;2022-12-18T20:00:50;1.10;99.00
18894;DHT22;9579;49.488;8.226;2022-12-18T20:03:37;1.20;99.10
18894;DHT22;9579;49.488;8.226;2022-12-18T20:06:27;1.30;98.80
18894;DHT22;9579;49.488;8.226;2022-12-18T20:09:15;1.20;98.70
18894;DHT22;9579;49.488;8.226;2022-12-18T20:12:02;1.10;98.90
18894;DHT22;9579;49.488;8.226;2022-12-18T20:14:49;1.10;98.90
18894;DHT22;9579;49.488;8.226;2022-12-18T20:17:38;1.00;99.10
18894;DHT22;9579;49.488;8.226;2022-12-18T20:20:25;1.10;99.40
18894;DHT22;9579;49.488;8.226;2022-12-18T20:23:12;1.20;99.30
18894;DHT22;9579;49.488;8.226;2022-12-18T20:25:59;1.20;99.20
18894;DHT22;9579;49.488;8.226;2022-12-18T20:28:47;1.10;99.10
18894;DHT22;9579;49.488;8.226;2022-12-18T20:31:35;1.00;99.20
18894;DHT22;9579;49.488;8.226;2022-12-18T20:34:23;1.00;99.30
18894;DHT22;9579;49.488;8.226;2022-12-18T20:37:10;1.00;99.20
18894;DHT22;9579;49.488;8.226;2022-12-18T20:39:57;1.00;99.70
18894;DHT22;9579;49.488;8.226;2022-12-18T20:42:44;1.10;99.80
18894;DHT22;9579;49.488;8.226;2022-12-18T20:45:32;1.20;99.50
18894;DHT22;9579;49.488;8.226;2022-12-18T20:48:20;1.40;99.70
18894;DHT22;9579;49.488;8.226;2022-12-18T20:51:10;1.50;99.30
18894;DHT22;9579;49.488;8.226;2022-12-18T20:53:58;1.60;99.30
18894;DHT22;9579;49.488;8.226;2022-12-18T20:56:45;1.60;99.10
18894;DHT22;9579;49.488;8.226;2022-12-18T20:59:32;1.70;99.00
18894;DHT22;9579;49.488;8.226;2022-12-18T21:02:20;1.70;98.90
18894;DHT22;9579;49.488;8.226;2022-12-18T21:05:08;1.60;98.60
18894;DHT22;9579;49.488;8.226;2022-12-18T21:07:56;1.60;99.00
18894;DHT22;9579;49.488;8.226;2022-12-18T21:10:43;1.60;99.00
18894;DHT22;9579;49.488;8.226;2022-12-18T21:13:30;1.60;99.00
18894;DHT22;9579;49.488;8.226;2022-12-18T21:16:17;1.70;99.10
18894;DHT22;9579;49.488;8.226;2022-12-18T21:19:05;1.70;99.00
18894;DHT22;9579;49.488;8.226;2022-12-18T21:21:53;1.60;98.90
18894;DHT22;9579;49.488;8.226;2022-12-18T21:24:42;1.60;99.00
18894;DHT22;9579;49.488;8.226;2022-12-18T21:27:29;1.50;99.10
18894;DHT22;9579;49.488;8.226;2022-12-18T21:30:16;1.50;98.80
18894;DHT22;9579;49.488;8.226;2022-12-18T21:33:03;1.50;98.90
18894;DHT22;9579;49.488;8.226;2022-12-18T21:35:51;1.50;99.00
18894;DHT22;9579;49.488;8.226;2022-12-18T21:38:39;1.30;98.80
18894;DHT22;9579;49.488;8.226;2022-12-18T21:41:28;1.30;99.30
18894;DHT22;9579;49.488;8.226;2022-12-18T21:44:30;1.50;99.50
18894;DHT22;9579;49.488;8.226;2022-12-18T21:47:18;1.50;99.40
18894;DHT22;9579;49.488;8.226;2022-12-18T21:50:06;1.60;99.10
18894;DHT22;9579;49.488;8.226;2022-12-18T21:52:55;1.60;98.80
18894;DHT22;9579;49.488;8.226;2022-12-18T21:55:42;1.60;98.90
18894;DHT22;9579;49.488;8.226;2022-12-18T21:58:30;1.60;99.00
18894;DHT22;9579;49.488;8.226;2022-12-18T22:01:17;1.70;99.20
18894;DHT22;9579;49.488;8.226;2022-12-18T22:04:05;1.80;99.00
18894;DHT22;9579;49.488;8.226;2022-12-18T22:06:52;1.80;98.70
18894;DHT22;9579;49.488;8.226;2022-12-18T22:09:39;1.80;99.40
18894;DHT22;9579;49.488;8.226;2022-12-18T22:12:29;1.80;99.10
18894;DHT22;9579;49.488;8.226;2022-12-18T22:15:23;1.80;98.90
18894;DHT22;9579;49.488;8.226;2022-12-18T22:18:11;1.70;98.90
18894;DHT22;9579;49.488;8.226;2022-12-18T22:21:03;1.70;98.90
18894;DHT22;9579;49.488;8.226;2022-12-18T22:23:55;1.70;99.20
18894;DHT22;9579;49.488;8.226;2022-12-18T22:26:43;1.80;99.00
18894;DHT22;9579;49.488;8.226;2022-12-18T22:29:30;1.80;98.90
18894;DHT22;9579;49.488;8.226;2022-12-18T22:32:36;1.70;98.30
18894;DHT22;9579;49.488;8.226;2022-12-18T22:35:23;1.70;98.80
18894;DHT22;9579;49.488;8.226;2022-12-18T22:38:10;1.80;98.90
18894;DHT22;9579;49.488;8.226;2022-12-18T22:40:57;1.80;98.90
18894;DHT22;9579;49.488;8.226;2022-12-18T22:43:44;1.80;98.90
18894;DHT22;9579;49.488;8.226;2022-12-18T22:46:33;1.90;99.00
18894;DHT22;9579;49.488;8.226;2022-12-18T22:49:24;1.80;98.80
18894;DHT22;9579;49.488;8.226;2022-12-18T22:52:11;1.80;98.90
18894;DHT22;9579;49.488;8.226;2022-12-18T22:54:58;1.70;98.60
18894;DHT22;9579;49.488;8.226;2022-12-18T22:57:45;1.70;98.90
18894;DHT22;9579;49.488;8.226;2022-12-18T23:00:36;1.80;99.00
18894;DHT22;9579;49.488;8.226;2022-12-18T23:03:23;1.80;98.70
18894;DHT22;9579;49.488;8.226;2022-12-18T23:06:11;1.60;98.80
18894;DHT22;9579;49.488;8.226;2022-12-18T23:08:59;1.70;98.80
18894;DHT22;9579;49.488;8.226;2022-12-18T23:11:46;1.60;98.80
18894;DHT22;9579;49.488;8.226;2022-12-18T23:14:33;1.60;98.90
18894;DHT22;9579;49.488;8.226;2022-12-18T23:17:22;1.60;99.20
18894;DHT22;9579;49.488;8.226;2022-12-18T23:20:12;1.70;99.00
18894;DHT22;9579;49.488;8.226;2022-12-18T23:23:03;1.70;98.90
18894;DHT22;9579;49.488;8.226;2022-12-18T23:25:59;1.70;99.10
18894;DHT22;9579;49.488;8.226;2022-12-18T23:28:50;1.60;98.90
18894;DHT22;9579;49.488;8.226;2022-12-18T23:31:38;1.50;99.00
18894;DHT22;9579;49.488;8.226;2022-12-18T23:34:25;1.50;99.10
18894;DHT22;9579;49.488;8.226;2022-12-18T23:37:24;1.30;99.20
18894;DHT22;9579;49.488;8.226;2022-12-18T23:40:30;1.40;99.60
18894;DHT22;9579;49.488;8.226;2022-12-18T23:43:20;1.50;99.50
18894;DHT22;9579;49.488;8.226;2022-12-18T23:46:10;1.50;99.40
18894;DHT22;9579;49.488;8.226;2022-12-18T23:48:58;1.60;99.50
18894;DHT22;9579;49.488;8.226;2022-12-18T23:51:46;1.60;99.30
18894;DHT22;9579;49.488;8.226;2022-12-18T23:54:34;1.60;99.30
18894;DHT22;9579;49.488;8.226;2022-12-18T23:57:25;1.60;99.50
